Time;durP1;ratioP1;P1;durP2;ratioP2;P2;SDS_P1;SDS_P2;PMS_P1;PMS_P2;Temp;Humidity;BMP_temperature;BMP_pressure;BME280_temperature;BME280_humidity;BME280_pressure;Samples;Min_cycle;Max_cycle;Signal;HPM_P1;HPM_P2
2023/07/27 00:00:07;;;;;;;2.22;1.50;;;;;;;;;;5076180;28;20052;-82
2023/07/27 00:02:33;;;;;;;1.90;1.35;;;;;;;;;;5070769;28;20100;-82
2023/07/27 00:04:58;;;;;;;2.47;1.50;;;;;;;;;;5063662;28;20028;-83
2023/07/27 00:07:25;;;;;;;2.03;1.48;;;;;;;;;;5053337;28;20388;-83
2023/07/27 00:09:50;;;;;;;4.47;1.33;;;;;;;;;;5063168;28;20051;-83
2023/07/27 00:12:16;;;;;;;2.83;1.30;;;;;;;;;;5075129;28;20033;-83
2023/07/27 00:14:41;;;;;;;2.25;1.15;;;;;;;;;;5062594;28;20021;-83
2023/07/27 00:17:07;;;;;;;2.00;1.30;;;;;;;;;;5057097;28;20954;-83
2023/07/27 00:19:32;;;;;;;2.83;1.48;;;;;;;;;;5067965;28;20052;-82
2023/07/27 00:21:58;;;;;;;3.35;1.30;;;;;;;;;;5060341;28;20053;-82
2023/07/27 00:24:23;;;;;;;2.50;1.65;;;;;;;;;;5070371;28;20088;-82
2023/07/27 00:26:49;;;;;;;2.67;1.50;;;;;;;;;;5061322;28;20037;-83
2023/07/27 00:29:14;;;;;;;2.70;1.40;;;;;;;;;;5068311;28;20060;-83
2023/07/27 00:31:39;;;;;;;2.97;1.40;;;;;;;;;;5066383;28;20033;-82
2023/07/27 00:34:05;;;;;;;1.63;1.30;;;;;;;;;;5065893;28;20032;-83
2023/07/27 00:36:30;;;;;;;3.90;1.40;;;;;;;;;;5049302;28;20032;-82
2023/07/27 00:38:56;;;;;;;2.22;1.40;;;;;;;;;;5072654;28;20029;-82
2023/07/27 00:41:21;;;;;;;1.77;1.25;;;;;;;;;;5070090;28;20071;-83
2023/07/27 00:43:47;;;;;;;2.15;1.40;;;;;;;;;;5057325;28;20032;-82
2023/07/27 00:46:13;;;;;;;2.20;1.50;;;;;;;;;;5059578;28;20037;-83
2023/07/27 00:48:39;;;;;;;2.00;1.30;;;;;;;;;;5074895;28;20013;-83
2023/07/27 00:51:10;;;;;;;1.73;1.30;;;;;;;;;;5062830;28;20032;-83
2023/07/27 00:53:36;;;;;;;2.60;1.48;;;;;;;;;;5058329;28;20380;-82
2023/07/27 00:56:02;;;;;;;3.67;1.40;;;;;;;;;;5051288;28;20503;-82
2023/07/27 00:58:28;;;;;;;2.08;1.45;;;;;;;;;;5054900;28;20053;-82
2023/07/27 01:00:54;;;;;;;1.95;1.38;;;;;;;;;;5075779;28;20036;-82
2023/07/27 01:03:20;;;;;;;3.03;1.50;;;;;;;;;;5070484;28;20037;-82
2023/07/27 01:05:46;;;;;;;3.22;1.80;;;;;;;;;;5064422;28;20029;-83
2023/07/27 01:08:11;;;;;;;2.30;1.33;;;;;;;;;;5056949;28;20388;-83
2023/07/27 01:11:22;;;;;;;6.60;1.85;;;;;;;;;;5073618;28;20047;-83
2023/07/27 01:14:18;;;;;;;2.40;1.40;;;;;;;;;;5050742;28;20522;-82
2023/07/27 01:17:26;;;;;;;1.73;1.40;;;;;;;;;;5052474;28;20476;-82
2023/07/27 01:20:16;;;;;;;2.40;1.27;;;;;;;;;;5061043;28;20041;-82
2023/07/27 01:23:00;;;;;;;2.20;1.35;;;;;;;;;;5070689;28;20027;-83
2023/07/27 01:25:35;;;;;;;1.90;1.30;;;;;;;;;;5064974;28;20102;-84
2023/07/27 01:28:35;;;;;;;1.98;1.40;;;;;;;;;;5064920;28;20472;-83
2023/07/27 01:31:06;;;;;;;2.17;1.50;;;;;;;;;;5060570;28;20041;-83
2023/07/27 01:33:36;;;;;;;2.13;1.50;;;;;;;;;;5063232;28;20074;-83
2023/07/27 01:36:08;;;;;;;2.67;1.50;;;;;;;;;;5059287;28;20120;-83
2023/07/27 01:38:36;;;;;;;2.63;1.50;;;;;;;;;;5072555;28;20037;-83
2023/07/27 01:41:04;;;;;;;2.33;1.50;;;;;;;;;;5067640;28;20105;-83
2023/07/27 01:43:31;;;;;;;2.00;1.40;;;;;;;;;;5053171;28;20037;-83
2023/07/27 01:45:58;;;;;;;3.65;1.60;;;;;;;;;;5063293;28;20092;-84
2023/07/27 01:48:26;;;;;;;2.17;1.38;;;;;;;;;;5069724;28;20020;-83
2023/07/27 01:50:54;;;;;;;2.20;1.60;;;;;;;;;;5061420;28;20028;-83
2023/07/27 01:53:20;;;;;;;2.67;1.60;;;;;;;;;;5057479;28;20041;-83
2023/07/27 01:55:46;;;;;;;3.38;1.42;;;;;;;;;;5062086;28;20135;-83
2023/07/27 01:58:15;;;;;;;1.88;1.30;;;;;;;;;;5076924;28;20049;-83
2023/07/27 02:00:41;;;;;;;2.47;1.48;;;;;;;;;;5058618;28;20025;-83
2023/07/27 02:03:08;;;;;;;2.40;1.60;;;;;;;;;;5068481;28;20029;-83
2023/07/27 02:05:34;;;;;;;2.80;1.70;;;;;;;;;;5050995;28;20068;-82
2023/07/27 02:08:00;;;;;;;2.33;1.42;;;;;;;;;;5050439;28;20036;-83
2023/07/27 02:10:28;;;;;;;2.88;1.40;;;;;;;;;;5075237;28;20036;-82
2023/07/27 02:13:14;;;;;;;2.45;1.50;;;;;;;;;;5062451;28;20029;-83
2023/07/27 02:15:46;;;;;;;3.25;1.65;;;;;;;;;;5061247;28;20029;-83
2023/07/27 02:18:18;;;;;;;3.03;1.30;;;;;;;;;;5060184;28;20068;-83
2023/07/27 02:20:46;;;;;;;2.08;1.45;;;;;;;;;;5068363;28;20029;-82
2023/07/27 02:23:14;;;;;;;4.25;1.50;;;;;;;;;;5065822;28;20029;-82
2023/07/27 02:25:40;;;;;;;3.00;1.70;;;;;;;;;;5054142;28;20139;-82
2023/07/27 02:28:09;;;;;;;2.50;1.52;;;;;;;;;;5062804;28;20520;-83
2023/07/27 02:30:34;;;;;;;3.00;1.52;;;;;;;;;;5058096;28;20160;-84
2023/07/27 02:33:00;;;;;;;2.22;1.30;;;;;;;;;;5065118;28;20036;-84
2023/07/27 02:35:25;;;;;;;2.78;1.60;;;;;;;;;;5058964;28;20120;-83
2023/07/27 02:37:54;;;;;;;3.60;1.50;;;;;;;;;;5068168;28;20162;-83
2023/07/27 02:40:23;;;;;;;2.13;1.40;;;;;;;;;;5057059;28;20030;-83
2023/07/27 02:42:49;;;;;;;2.35;1.40;;;;;;;;;;5065897;28;20037;-83
2023/07/27 02:45:14;;;;;;;8.77;1.70;;;;;;;;;;5064333;28;20104;-83
2023/07/27 02:47:40;;;;;;;2.60;1.58;;;;;;;;;;5055307;28;20029;-83
2023/07/27 02:50:06;;;;;;;3.20;1.45;;;;;;;;;;5069444;28;20067;-83
2023/07/27 02:52:45;;;;;;;2.38;1.60;;;;;;;;;;5062061;28;20052;-83
2023/07/27 02:55:11;;;;;;;2.20;1.50;;;;;;;;;;5055010;28;20041;-83
2023/07/27 02:57:37;;;;;;;2.55;1.40;;;;;;;;;;5076043;28;20032;-84
2023/07/27 03:00:03;;;;;;;3.78;1.60;;;;;;;;;;5058545;28;20091;-82
2023/07/27 03:02:31;;;;;;;4.40;1.67;;;;;;;;;;5056976;28;20043;-82
2023/07/27 03:04:58;;;;;;;2.38;1.58;;;;;;;;;;5065137;28;20044;-82
2023/07/27 03:07:24;;;;;;;2.08;1.50;;;;;;;;;;5059471;28;20052;-82
2023/07/27 03:09:51;;;;;;;4.15;1.85;;;;;;;;;;5077278;28;20032;-82
2023/07/27 03:12:18;;;;;;;3.63;1.40;;;;;;;;;;5072336;28;20022;-83
2023/07/27 03:14:44;;;;;;;2.70;1.63;;;;;;;;;;5045216;28;20562;-83
2023/07/27 03:17:09;;;;;;;2.50;1.67;;;;;;;;;;5058825;28;20052;-82
2023/07/27 03:19:35;;;;;;;3.95;1.60;;;;;;;;;;5074897;28;20021;-83
2023/07/27 03:22:00;;;;;;;3.05;1.90;;;;;;;;;;5066638;28;20112;-82
2023/07/27 03:24:26;;;;;;;2.40;1.35;;;;;;;;;;5057542;28;20048;-82
2023/07/27 03:26:52;;;;;;;3.65;1.75;;;;;;;;;;5063829;28;20043;-82
2023/07/27 03:29:18;;;;;;;2.60;1.52;;;;;;;;;;5061596;28;20071;-82
2023/07/27 03:31:44;;;;;;;2.38;1.60;;;;;;;;;;5070483;28;20035;-82
2023/07/27 03:34:10;;;;;;;5.68;1.70;;;;;;;;;;5060819;28;20035;-82
2023/07/27 03:36:35;;;;;;;3.08;1.63;;;;;;;;;;5063473;28;20068;-83
2023/07/27 03:39:01;;;;;;;2.60;1.63;;;;;;;;;;5062723;28;20036;-82
2023/07/27 03:41:26;;;;;;;1.73;1.40;;;;;;;;;;5051381;28;20065;-82
2023/07/27 03:43:52;;;;;;;3.70;1.65;;;;;;;;;;5069148;28;20048;-83
2023/07/27 03:46:17;;;;;;;2.90;1.60;;;;;;;;;;5068655;28;20113;-83
2023/07/27 03:48:46;;;;;;;3.60;1.70;;;;;;;;;;5069124;28;20059;-83
2023/07/27 03:51:11;;;;;;;2.00;1.60;;;;;;;;;;5066554;28;20048;-84
2023/07/27 03:53:38;;;;;;;3.88;1.70;;;;;;;;;;5057949;28;20036;-83
2023/07/27 03:56:04;;;;;;;3.25;1.80;;;;;;;;;;5069712;28;20404;-83
2023/07/27 03:58:31;;;;;;;3.92;1.90;;;;;;;;;;5057955;28;20029;-83
2023/07/27 04:00:57;;;;;;;2.75;1.73;;;;;;;;;;5052915;28;20037;-83
2023/07/27 04:03:22;;;;;;;2.50;1.70;;;;;;;;;;5052808;28;20029;-83
2023/07/27 04:05:51;;;;;;;4.35;1.80;;;;;;;;;;5051829;28;20592;-83
2023/07/27 04:08:16;;;;;;;4.85;1.80;;;;;;;;;;5076738;28;20032;-83
2023/07/27 04:10:42;;;;;;;2.22;1.48;;;;;;;;;;5065109;28;20028;-83
2023/07/27 04:13:08;;;;;;;4.30;1.65;;;;;;;;;;5056758;28;20082;-82
2023/07/27 04:15:34;;;;;;;4.63;1.90;;;;;;;;;;5046366;28;20496;-81
2023/07/27 04:17:59;;;;;;;2.42;1.50;;;;;;;;;;5075255;28;20021;-84
2023/07/27 04:20:25;;;;;;;2.88;1.60;;;;;;;;;;5072589;28;20045;-83
2023/07/27 04:22:50;;;;;;;3.63;1.67;;;;;;;;;;5066703;28;20033;-83
2023/07/27 04:25:16;;;;;;;2.95;1.60;;;;;;;;;;5049124;28;20032;-84
2023/07/27 04:27:41;;;;;;;4.47;1.98;;;;;;;;;;5063948;28;20025;-83
2023/07/27 04:30:07;;;;;;;4.32;1.83;;;;;;;;;;5074004;28;20037;-83
2023/07/27 04:32:33;;;;;;;2.28;1.50;;;;;;;;;;5064019;28;20035;-83
2023/07/27 04:34:58;;;;;;;2.67;1.60;;;;;;;;;;5059414;28;20056;-83
2023/07/27 04:37:24;;;;;;;2.42;1.60;;;;;;;;;;5064636;28;20033;-83
2023/07/27 04:39:49;;;;;;;3.05;1.80;;;;;;;;;;5059647;28;20059;-83
2023/07/27 04:42:15;;;;;;;2.53;1.70;;;;;;;;;;5067710;28;20022;-83
2023/07/27 04:44:40;;;;;;;3.55;1.60;;;;;;;;;;5065336;28;20033;-83
2023/07/27 04:47:06;;;;;;;1.90;1.50;;;;;;;;;;5069134;28;20029;-83
2023/07/27 04:49:31;;;;;;;3.70;1.50;;;;;;;;;;5049357;28;20056;-83
2023/07/27 04:51:57;;;;;;;2.75;1.65;;;;;;;;;;5060001;28;20032;-83
2023/07/27 04:54:23;;;;;;;2.40;1.60;;;;;;;;;;5066905;28;20119;-82
2023/07/27 04:56:48;;;;;;;4.25;1.50;;;;;;;;;;5072499;28;20067;-83
2023/07/27 04:59:13;;;;;;;3.30;1.60;;;;;;;;;;5063436;28;20031;-84
2023/07/27 05:01:39;;;;;;;2.90;1.55;;;;;;;;;;5054821;28;20128;-83
2023/07/27 05:04:04;;;;;;;2.85;1.63;;;;;;;;;;5058220;28;20036;-83
2023/07/27 05:06:30;;;;;;;4.10;1.67;;;;;;;;;;5076083;28;20044;-83
2023/07/27 05:08:55;;;;;;;3.05;1.60;;;;;;;;;;5067063;28;20044;-83
2023/07/27 05:11:21;;;;;;;2.35;1.40;;;;;;;;;;5059075;28;20037;-82
2023/07/27 05:13:46;;;;;;;2.67;1.58;;;;;;;;;;5051491;28;20061;-83
2023/07/27 05:16:12;;;;;;;2.63;1.48;;;;;;;;;;5068507;28;20032;-82
2023/07/27 05:18:37;;;;;;;2.55;1.50;;;;;;;;;;5071472;28;20028;-83
2023/07/27 05:21:03;;;;;;;1.90;1.30;;;;;;;;;;5063186;28;20092;-82
2023/07/27 05:23:28;;;;;;;2.72;1.40;;;;;;;;;;5063174;28;20041;-82
2023/07/27 05:25:54;;;;;;;6.05;1.60;;;;;;;;;;5058782;28;20033;-82
2023/07/27 05:28:19;;;;;;;2.53;1.60;;;;;;;;;;5072279;28;20025;-82
2023/07/27 05:30:45;;;;;;;2.33;1.42;;;;;;;;;;5066746;28;20037;-82
2023/07/27 05:33:10;;;;;;;2.10;1.40;;;;;;;;;;5056502;28;20047;-83
2023/07/27 05:35:36;;;;;;;3.17;1.52;;;;;;;;;;5062204;28;20033;-82
2023/07/27 05:38:01;;;;;;;3.50;1.55;;;;;;;;;;5059885;28;20537;-82
2023/07/27 05:40:27;;;;;;;2.45;1.58;;;;;;;;;;5064758;28;20177;-82
2023/07/27 05:42:52;;;;;;;2.17;1.48;;;;;;;;;;5059886;28;20097;-81
2023/07/27 05:45:18;;;;;;;2.50;1.70;;;;;;;;;;5068196;28;20021;-82
2023/07/27 05:47:43;;;;;;;3.53;1.40;;;;;;;;;;5064004;28;20029;-81
2023/07/27 05:50:09;;;;;;;2.40;1.50;;;;;;;;;;5058350;28;20056;-82
2023/07/27 05:52:35;;;;;;;2.33;1.50;;;;;;;;;;5068002;28;20755;-82
2023/07/27 05:55:01;;;;;;;1.73;1.33;;;;;;;;;;5069226;28;20039;-81
2023/07/27 05:57:26;;;;;;;2.63;1.40;;;;;;;;;;5068311;28;20042;-82
2023/07/27 05:59:51;;;;;;;2.88;1.50;;;;;;;;;;5059883;28;20359;-82
2023/07/27 06:02:17;;;;;;;2.80;1.75;;;;;;;;;;5057099;28;20029;-82
2023/07/27 06:04:42;;;;;;;2.90;1.40;;;;;;;;;;5053485;28;20121;-82
2023/07/27 06:07:08;;;;;;;1.80;1.33;;;;;;;;;;5071396;28;20036;-82
2023/07/27 06:09:36;;;;;;;2.38;1.40;;;;;;;;;;5061105;28;20025;-83
2023/07/27 06:12:10;;;;;;;1.80;1.30;;;;;;;;;;5048292;28;20087;-82
2023/07/27 06:14:35;;;;;;;1.98;1.25;;;;;;;;;;5065089;28;20117;-82
2023/07/27 06:17:01;;;;;;;3.35;1.50;;;;;;;;;;5074687;28;20029;-82
2023/07/27 06:19:26;;;;;;;2.42;1.65;;;;;;;;;;5063710;28;20100;-82
2023/07/27 06:21:52;;;;;;;2.15;1.50;;;;;;;;;;5054949;28;20032;-83
2023/07/27 06:24:17;;;;;;;2.33;1.50;;;;;;;;;;5054543;28;20051;-82
2023/07/27 06:26:43;;;;;;;2.30;1.50;;;;;;;;;;5072840;28;20054;-81
2023/07/27 06:29:09;;;;;;;2.45;1.48;;;;;;;;;;5068057;28;20088;-84
2023/07/27 06:31:34;;;;;;;2.67;1.50;;;;;;;;;;5056988;28;20040;-83
2023/07/27 06:33:59;;;;;;;1.88;1.38;;;;;;;;;;5057105;28;20053;-83
2023/07/27 06:36:25;;;;;;;3.88;1.55;;;;;;;;;;5058944;28;20029;-83
2023/07/27 06:38:50;;;;;;;1.45;1.20;;;;;;;;;;5060541;28;20030;-83
2023/07/27 06:41:17;;;;;;;4.05;1.55;;;;;;;;;;5062843;28;20033;-83
2023/07/27 06:43:42;;;;;;;1.88;1.50;;;;;;;;;;5061163;28;20036;-83
2023/07/27 06:46:08;;;;;;;1.85;1.45;;;;;;;;;;5061981;28;20037;-84
2023/07/27 06:48:33;;;;;;;2.83;1.40;;;;;;;;;;5053470;28;20052;-84
2023/07/27 06:51:00;;;;;;;2.65;1.33;;;;;;;;;;5053619;28;20025;-84
2023/07/27 06:53:25;;;;;;;2.05;1.38;;;;;;;;;;5062757;28;20028;-83
2023/07/27 06:55:50;;;;;;;1.98;1.30;;;;;;;;;;5069210;28;20137;-83
2023/07/27 06:58:16;;;;;;;1.55;1.20;;;;;;;;;;5062745;28;20044;-83
2023/07/27 07:00:42;;;;;;;1.85;1.27;;;;;;;;;;5055617;28;20090;-83
2023/07/27 07:03:07;;;;;;;2.90;1.67;;;;;;;;;;5062926;28;20447;-85
2023/07/27 07:05:33;;;;;;;2.28;1.40;;;;;;;;;;5071667;28;20035;-84
2023/07/27 07:07:58;;;;;;;2.22;1.30;;;;;;;;;;5060292;28;20072;-84
2023/07/27 07:10:24;;;;;;;4.80;1.55;;;;;;;;;;5053079;28;20040;-82
2023/07/27 07:12:49;;;;;;;2.78;1.40;;;;;;;;;;5059264;28;20387;-83
2023/07/27 07:15:15;;;;;;;1.90;1.27;;;;;;;;;;5076686;28;20054;-84
2023/07/27 07:17:40;;;;;;;3.45;1.40;;;;;;;;;;5062911;28;20028;-84
2023/07/27 07:20:08;;;;;;;2.20;1.30;;;;;;;;;;5056556;28;20092;-84
2023/07/27 07:22:36;;;;;;;2.53;1.40;;;;;;;;;;5046018;28;20041;-83
2023/07/27 07:25:01;;;;;;;4.82;1.30;;;;;;;;;;5068533;28;20043;-84
2023/07/27 07:27:27;;;;;;;2.70;1.52;;;;;;;;;;5069222;28;20463;-83
2023/07/27 07:29:52;;;;;;;1.90;1.33;;;;;;;;;;5066841;28;20494;-83
2023/07/27 07:32:18;;;;;;;5.88;1.58;;;;;;;;;;5050497;28;20034;-82
2023/07/27 07:34:43;;;;;;;2.00;1.35;;;;;;;;;;5059994;28;20112;-83
2023/07/27 07:37:09;;;;;;;3.42;1.48;;;;;;;;;;5071452;28;20041;-83
2023/07/27 07:39:34;;;;;;;3.80;1.35;;;;;;;;;;5067467;28;20136;-84
2023/07/27 07:42:00;;;;;;;2.00;1.40;;;;;;;;;;5061802;28;20041;-83
2023/07/27 07:44:26;;;;;;;4.68;1.60;;;;;;;;;;5065236;28;20032;-84
2023/07/27 07:46:52;;;;;;;2.20;1.50;;;;;;;;;;5061945;28;20069;-83
2023/07/27 07:49:17;;;;;;;2.55;1.42;;;;;;;;;;5070839;28;20037;-82
2023/07/27 07:51:43;;;;;;;2.50;1.40;;;;;;;;;;5050260;28;20037;-83
2023/07/27 07:54:09;;;;;;;2.03;1.50;;;;;;;;;;5067972;28;20017;-85
2023/07/27 07:56:35;;;;;;;3.10;1.25;;;;;;;;;;5064461;28;20179;-84
2023/07/27 07:59:01;;;;;;;2.05;1.40;;;;;;;;;;5054865;28;20025;-84
2023/07/27 08:01:26;;;;;;;2.22;1.50;;;;;;;;;;5064433;28;20139;-84
2023/07/27 08:03:52;;;;;;;2.17;1.33;;;;;;;;;;5070217;28;20106;-83
2023/07/27 08:06:18;;;;;;;3.42;1.50;;;;;;;;;;5066515;28;20462;-82
2023/07/27 08:08:44;;;;;;;2.30;1.40;;;;;;;;;;5059437;28;20068;-82
2023/07/27 08:11:09;;;;;;;3.03;1.60;;;;;;;;;;5055092;28;20032;-81
2023/07/27 08:13:35;;;;;;;2.70;1.30;;;;;;;;;;5075398;28;20025;-82
2023/07/27 08:16:03;;;;;;;2.13;1.30;;;;;;;;;;5074802;28;20072;-81
2023/07/27 08:18:29;;;;;;;2.15;1.50;;;;;;;;;;5064253;28;20025;-81
2023/07/27 08:21:03;;;;;;;4.70;1.50;;;;;;;;;;5057451;28;20067;-81
2023/07/27 08:23:29;;;;;;;2.30;1.33;;;;;;;;;;5070371;28;20041;-81
2023/07/27 08:25:56;;;;;;;2.15;1.45;;;;;;;;;;5075356;28;20497;-82
2023/07/27 08:28:22;;;;;;;2.75;1.50;;;;;;;;;;5066304;28;20063;-81
2023/07/27 08:30:48;;;;;;;2.45;1.50;;;;;;;;;;5058636;28;20037;-82
2023/07/27 08:33:14;;;;;;;2.58;1.50;;;;;;;;;;5061181;28;20029;-82
2023/07/27 08:35:39;;;;;;;2.90;1.48;;;;;;;;;;5074863;28;20039;-83
2023/07/27 08:38:05;;;;;;;2.17;1.40;;;;;;;;;;5064504;28;20039;-83
2023/07/27 08:40:31;;;;;;;2.65;1.50;;;;;;;;;;5060688;28;20043;-82
2023/07/27 08:42:57;;;;;;;2.38;1.20;;;;;;;;;;5061367;28;20060;-81
2023/07/27 08:45:22;;;;;;;2.85;1.60;;;;;;;;;;5062075;28;20032;-82
2023/07/27 08:47:49;;;;;;;2.22;1.50;;;;;;;;;;5072638;28;20025;-81
2023/07/27 08:50:15;;;;;;;2.38;1.40;;;;;;;;;;5067461;28;20041;-82
2023/07/27 08:52:41;;;;;;;2.10;1.50;;;;;;;;;;5065213;28;20044;-82
2023/07/27 08:55:07;;;;;;;2.35;1.58;;;;;;;;;;5067625;28;20126;-83
2023/07/27 08:57:32;;;;;;;2.67;1.73;;;;;;;;;;5057002;28;20021;-83
2023/07/27 08:59:58;;;;;;;2.72;1.50;;;;;;;;;;5066541;28;20037;-82
2023/07/27 09:02:23;;;;;;;2.17;1.35;;;;;;;;;;5064866;28;20022;-81
2023/07/27 09:04:49;;;;;;;3.05;1.33;;;;;;;;;;5067688;28;20025;-82
2023/07/27 09:07:14;;;;;;;2.40;1.40;;;;;;;;;;5057278;28;20036;-83
2023/07/27 09:09:40;;;;;;;3.22;1.70;;;;;;;;;;5056179;28;20033;-81
2023/07/27 09:12:07;;;;;;;4.30;1.40;;;;;;;;;;5066959;28;20119;-82
2023/07/27 09:14:36;;;;;;;2.08;1.42;;;;;;;;;;5068496;28;20099;-82
2023/07/27 09:17:02;;;;;;;2.17;1.60;;;;;;;;;;5055554;28;20025;-82
2023/07/27 09:19:39;;;;;;;2.38;1.60;;;;;;;;;;5050485;28;20042;-82
2023/07/27 09:22:05;;;;;;;3.72;1.48;;;;;;;;;;5059616;28;20059;-81
2023/07/27 09:24:35;;;;;;;3.33;1.63;;;;;;;;;;5073420;28;20028;-82
2023/07/27 09:27:02;;;;;;;2.42;1.60;;;;;;;;;;5063296;28;20425;-81
2023/07/27 09:29:28;;;;;;;2.90;1.40;;;;;;;;;;5052838;28;20048;-82
2023/07/27 09:31:58;;;;;;;2.38;1.63;;;;;;;;;;5053179;28;20039;-82
2023/07/27 09:34:28;;;;;;;5.07;1.65;;;;;;;;;;5066932;28;20067;-83
2023/07/27 09:37:04;;;;;;;2.83;1.50;;;;;;;;;;5064026;28;20056;-83
2023/07/27 09:39:42;;;;;;;3.38;1.50;;;;;;;;;;5055720;28;20039;-84
2023/07/27 09:42:10;;;;;;;2.60;1.58;;;;;;;;;;5060672;28;20488;-83
2023/07/27 09:44:47;;;;;;;2.95;1.67;;;;;;;;;;5061481;28;20455;-83
2023/07/27 09:47:19;;;;;;;4.05;1.73;;;;;;;;;;5066094;28;20049;-83
2023/07/27 09:49:44;;;;;;;2.28;1.67;;;;;;;;;;5054891;28;20036;-83
2023/07/27 09:52:11;;;;;;;2.20;1.50;;;;;;;;;;5065531;28;20020;-82
2023/07/27 09:54:38;;;;;;;2.40;1.70;;;;;;;;;;5064885;28;20431;-83
2023/07/27 09:57:04;;;;;;;2.65;1.70;;;;;;;;;;5069443;28;20029;-82
2023/07/27 09:59:30;;;;;;;2.53;1.77;;;;;;;;;;5067280;28;20097;-82
2023/07/27 10:01:56;;;;;;;3.17;1.70;;;;;;;;;;5065293;28;20055;-83
2023/07/27 10:04:22;;;;;;;3.20;1.75;;;;;;;;;;5059200;28;20041;-83
2023/07/27 10:06:47;;;;;;;2.38;1.60;;;;;;;;;;5056400;28;20029;-85
2023/07/27 10:09:22;;;;;;;2.75;1.73;;;;;;;;;;5064279;28;20030;-82
2023/07/27 10:11:57;;;;;;;4.32;1.95;;;;;;;;;;5068758;28;20032;-86
2023/07/27 10:14:25;;;;;;;5.50;1.70;;;;;;;;;;5061793;28;20045;-84
2023/07/27 10:17:02;;;;;;;1.90;1.50;;;;;;;;;;5052372;28;20052;-85
2023/07/27 10:19:43;;;;;;;2.00;1.52;;;;;;;;;;5053683;28;20033;-82
2023/07/27 10:22:14;;;;;;;3.75;1.60;;;;;;;;;;5073888;28;20029;-85
2023/07/27 10:24:53;;;;;;;2.67;1.52;;;;;;;;;;5072325;28;20065;-83
2023/07/27 10:27:20;;;;;;;2.78;1.73;;;;;;;;;;5061036;28;20052;-83
2023/07/27 10:29:53;;;;;;;2.65;1.48;;;;;;;;;;5052709;28;20030;-83
2023/07/27 10:32:19;;;;;;;3.47;1.80;;;;;;;;;;5073076;28;20033;-85
2023/07/27 10:34:50;;;;;;;3.45;1.80;;;;;;;;;;5074818;28;20029;-85
2023/07/27 10:37:16;;;;;;;3.50;1.90;;;;;;;;;;5063427;28;20039;-85
2023/07/27 10:39:43;;;;;;;2.88;1.90;;;;;;;;;;5038857;28;20038;-86
2023/07/27 10:42:12;;;;;;;2.90;1.90;;;;;;;;;;5063009;28;20142;-84
2023/07/27 10:44:46;;;;;;;2.97;1.60;;;;;;;;;;5073655;28;20123;-84
2023/07/27 10:47:25;;;;;;;3.13;1.70;;;;;;;;;;5054611;28;20494;-85
2023/07/27 10:49:55;;;;;;;4.10;1.80;;;;;;;;;;5057963;28;20034;-85
2023/07/27 10:52:26;;;;;;;4.05;1.83;;;;;;;;;;5066684;28;20040;-85
2023/07/27 10:54:53;;;;;;;2.30;1.60;;;;;;;;;;5071521;28;20021;-85
2023/07/27 10:57:20;;;;;;;3.20;1.70;;;;;;;;;;5070232;28;20044;-84
2023/07/27 10:59:50;;;;;;;2.97;1.80;;;;;;;;;;5061753;28;20037;-85
2023/07/27 11:02:23;;;;;;;5.05;1.80;;;;;;;;;;5069737;28;20071;-87
2023/07/27 11:04:59;;;;;;;3.58;1.90;;;;;;;;;;5059084;28;20033;-84
2023/07/27 11:07:30;;;;;;;4.18;1.70;;;;;;;;;;5082571;28;20034;-84
2023/07/27 11:09:56;;;;;;;2.88;1.88;;;;;;;;;;5056458;28;20087;-85
2023/07/27 11:12:22;;;;;;;4.07;1.85;;;;;;;;;;5071725;28;20028;-84
2023/07/27 11:14:48;;;;;;;3.03;1.83;;;;;;;;;;5061010;28;20051;-85
2023/07/27 11:17:14;;;;;;;3.55;1.63;;;;;;;;;;5052723;28;20044;-84
2023/07/27 11:19:40;;;;;;;3.88;1.80;;;;;;;;;;5056228;28;20518;-85
2023/07/27 11:22:05;;;;;;;3.05;1.65;;;;;;;;;;5075413;28;20047;-81
2023/07/27 11:24:32;;;;;;;2.10;1.63;;;;;;;;;;5065761;28;20036;-83
2023/07/27 11:26:57;;;;;;;3.22;1.80;;;;;;;;;;5061560;28;20036;-83
2023/07/27 11:29:23;;;;;;;2.85;1.73;;;;;;;;;;5050547;28;20394;-84
2023/07/27 11:31:57;;;;;;;3.08;1.77;;;;;;;;;;5065075;28;20055;-85
2023/07/27 11:34:25;;;;;;;2.92;1.83;;;;;;;;;;5053276;28;20845;-84
2023/07/27 11:36:59;;;;;;;3.85;1.88;;;;;;;;;;5068988;28;20037;-84
2023/07/27 11:39:25;;;;;;;3.75;1.70;;;;;;;;;;5056553;28;20068;-83
2023/07/27 11:41:51;;;;;;;2.63;1.88;;;;;;;;;;5064442;28;20061;-85
2023/07/27 11:44:20;;;;;;;2.85;1.98;;;;;;;;;;5075308;28;20052;-84
2023/07/27 11:46:50;;;;;;;2.55;1.90;;;;;;;;;;5065967;28;20080;-84
2023/07/27 11:49:16;;;;;;;3.47;1.70;;;;;;;;;;5060246;28;20032;-83
2023/07/27 11:51:44;;;;;;;2.60;1.77;;;;;;;;;;5065500;28;20048;-83
2023/07/27 11:54:09;;;;;;;4.03;1.80;;;;;;;;;;5069405;28;20029;-84
2023/07/27 11:56:36;;;;;;;2.83;1.80;;;;;;;;;;5069164;28;20043;-86
2023/07/27 11:59:06;;;;;;;2.60;1.80;;;;;;;;;;5060866;28;20048;-83
2023/07/27 12:01:35;;;;;;;2.65;1.88;;;;;;;;;;5063526;28;20020;-85
2023/07/27 12:04:03;;;;;;;2.17;1.83;;;;;;;;;;5051579;28;20037;-85
2023/07/27 12:06:30;;;;;;;2.10;1.80;;;;;;;;;;5058837;28;20033;-83
2023/07/27 12:08:56;;;;;;;2.78;1.70;;;;;;;;;;5057433;28;20033;-85
2023/07/27 12:11:26;;;;;;;3.17;2.08;;;;;;;;;;5064593;28;20037;-84
2023/07/27 12:13:52;;;;;;;2.83;1.70;;;;;;;;;;5057552;28;20032;-84
2023/07/27 12:16:17;;;;;;;2.65;1.90;;;;;;;;;;5048285;28;20035;-83
2023/07/27 12:18:45;;;;;;;2.67;1.67;;;;;;;;;;5053726;28;20030;-83
2023/07/27 12:21:11;;;;;;;2.30;1.70;;;;;;;;;;5063621;28;20035;-83
2023/07/27 12:23:36;;;;;;;2.30;1.60;;;;;;;;;;5059460;28;20036;-83
2023/07/27 12:26:02;;;;;;;2.33;1.77;;;;;;;;;;5056243;28;20114;-85
2023/07/27 12:28:27;;;;;;;2.30;1.70;;;;;;;;;;5048196;28;20033;-83
2023/07/27 12:30:53;;;;;;;3.17;1.98;;;;;;;;;;5069022;28;20032;-84
2023/07/27 12:33:21;;;;;;;4.10;1.90;;;;;;;;;;5052375;28;20100;-85
2023/07/27 12:35:48;;;;;;;5.20;1.77;;;;;;;;;;5056349;28;20029;-84
2023/07/27 12:38:13;;;;;;;3.92;2.00;;;;;;;;;;5046149;28;20046;-81
2023/07/27 12:40:39;;;;;;;4.20;2.10;;;;;;;;;;5059571;28;20047;-83
2023/07/27 12:43:05;;;;;;;2.83;1.90;;;;;;;;;;5066581;28;20547;-85
2023/07/27 12:45:30;;;;;;;3.17;1.90;;;;;;;;;;5056462;28;20029;-84
2023/07/27 12:47:58;;;;;;;2.70;1.92;;;;;;;;;;5068291;28;20096;-83
2023/07/27 12:50:24;;;;;;;2.70;2.00;;;;;;;;;;5059598;28;20396;-83
2023/07/27 12:52:49;;;;;;;3.28;2.00;;;;;;;;;;5070497;28;20021;-84
2023/07/27 12:55:16;;;;;;;2.47;1.80;;;;;;;;;;5065529;28;20052;-84
2023/07/27 12:57:42;;;;;;;2.55;1.98;;;;;;;;;;5056502;28;20041;-83
2023/07/27 13:00:08;;;;;;;2.28;1.70;;;;;;;;;;5056219;28;20160;-83
2023/07/27 13:02:37;;;;;;;2.60;1.80;;;;;;;;;;5055984;28;20025;-83
2023/07/27 13:05:03;;;;;;;3.55;1.50;;;;;;;;;;5064563;28;20040;-85
2023/07/27 13:07:29;;;;;;;2.33;1.90;;;;;;;;;;5057456;28;20041;-83
2023/07/27 13:09:55;;;;;;;2.15;1.77;;;;;;;;;;5057081;28;20028;-83
2023/07/27 13:12:21;;;;;;;2.50;1.70;;;;;;;;;;5057575;28;20045;-85
2023/07/27 13:14:47;;;;;;;3.22;1.75;;;;;;;;;;5058363;28;20092;-84
2023/07/27 13:17:12;;;;;;;2.92;1.83;;;;;;;;;;5056573;28;20064;-84
2023/07/27 13:19:39;;;;;;;2.97;1.95;;;;;;;;;;5059411;28;20067;-83
2023/07/27 13:22:05;;;;;;;2.22;1.77;;;;;;;;;;5064950;28;20048;-85
2023/07/27 13:24:31;;;;;;;2.97;2.00;;;;;;;;;;5053509;28;20039;-83
2023/07/27 13:26:56;;;;;;;2.53;1.70;;;;;;;;;;5056848;28;20033;-83
2023/07/27 13:29:22;;;;;;;2.30;1.90;;;;;;;;;;5064299;28;20493;-83
2023/07/27 13:31:47;;;;;;;2.58;1.90;;;;;;;;;;5065489;28;20043;-84
2023/07/27 13:34:13;;;;;;;2.80;1.92;;;;;;;;;;5052036;28;20039;-84
2023/07/27 13:36:38;;;;;;;2.28;1.83;;;;;;;;;;5046777;28;20033;-86
2023/07/27 13:39:03;;;;;;;2.20;1.60;;;;;;;;;;5052492;28;20032;-83
2023/07/27 13:41:29;;;;;;;2.88;2.00;;;;;;;;;;5060803;28;20048;-83
2023/07/27 13:43:54;;;;;;;2.67;2.00;;;;;;;;;;5057393;28;20098;-84
2023/07/27 13:46:22;;;;;;;3.17;1.98;;;;;;;;;;5054637;28;20053;-86
2023/07/27 13:48:47;;;;;;;2.80;1.90;;;;;;;;;;5050989;28;20092;-83
2023/07/27 13:51:13;;;;;;;3.40;1.90;;;;;;;;;;5065197;28;20060;-86
2023/07/27 13:53:38;;;;;;;3.30;1.85;;;;;;;;;;5061000;28;20028;-86
2023/07/27 13:56:04;;;;;;;2.90;1.98;;;;;;;;;;5062705;28;20033;-86
2023/07/27 13:58:30;;;;;;;3.97;2.00;;;;;;;;;;5056826;28;20028;-84
2023/07/27 14:00:55;;;;;;;3.22;1.90;;;;;;;;;;5055957;28;20037;-86
2023/07/27 14:03:22;;;;;;;4.18;1.90;;;;;;;;;;5062079;28;20044;-82
2023/07/27 14:05:48;;;;;;;4.72;2.10;;;;;;;;;;5054970;28;20472;-85
2023/07/27 14:08:14;;;;;;;3.65;2.33;;;;;;;;;;5056502;28;20032;-85
2023/07/27 14:10:39;;;;;;;3.15;2.17;;;;;;;;;;5058643;28;20033;-83
2023/07/27 14:13:05;;;;;;;2.53;1.75;;;;;;;;;;5064987;28;20035;-85
2023/07/27 14:15:31;;;;;;;2.97;1.90;;;;;;;;;;5060561;28;20193;-84
2023/07/27 14:17:59;;;;;;;2.58;1.75;;;;;;;;;;5062748;28;20032;-84
2023/07/27 14:20:26;;;;;;;3.22;1.90;;;;;;;;;;5060187;28;20099;-82
2023/07/27 14:22:51;;;;;;;2.67;2.00;;;;;;;;;;5067486;28;20048;-86
2023/07/27 14:25:17;;;;;;;2.63;1.67;;;;;;;;;;5058443;28;20422;-85
2023/07/27 14:27:42;;;;;;;3.13;1.85;;;;;;;;;;5062002;28;20475;-83
2023/07/27 14:30:08;;;;;;;3.95;1.88;;;;;;;;;;5059310;28;20529;-85
2023/07/27 14:32:33;;;;;;;3.50;1.95;;;;;;;;;;5054873;28;20025;-84
2023/07/27 14:34:59;;;;;;;3.40;1.92;;;;;;;;;;5054613;28;20029;-82
2023/07/27 14:37:24;;;;;;;2.70;1.90;;;;;;;;;;5047125;28;20135;-84
2023/07/27 14:39:50;;;;;;;3.08;2.00;;;;;;;;;;5049886;28;20468;-84
2023/07/27 14:42:15;;;;;;;3.65;2.00;;;;;;;;;;5050671;28;20026;-84